Mount Airy, NC (27030)

10:07 AM EDT on July 21, 2017 (GMT -0400)
Town | | Change Station

Elev 1200 ft 36.50 °N, 80.64 °W | Updated 1 second ago

Partly Cloudy
Partly Cloudy
87.3 °F
Feels Like 99 °F
N
0.0
Wind Variable Wind from SSE
Gusts 0.0 mph

Today
High -- | Low -- °F
--% Chance of Precip.
Yesterday
High -- | Low -- °F
Precip. -- in
Pressure 30.10 in
Visibility 10.0 miles
Clouds Scattered Clouds 7500 ft
Heat Index 99 °F
Dew Point 77 °F
Humidity 71%
Rainfall 0.00 in
Snow Depth Not available.
6:20 AM 8:36 PM
Waning Crescent, 5% visible
METAR KMWK 211345Z AUTO 31004KT 10SM SCT075 29/21 A3010 RMK AO2 P0004 T02850214
Pressure 30.10 in
Visibility 10.0 miles
Clouds Scattered Clouds 7500 ft
Heat Index 99 °F
Dew Point 77 °F
Humidity 71%
Rainfall 0.00 in
Snow Depth Not available.
6:20 AM 8:36 PM
Waning Crescent, 5% visible
METAR KMWK 211345Z AUTO 31004KT 10SM SCT075 29/21 A3010 RMK AO2 P0004 T02850214

Get Severe Weather Alerts

Thanks for signing up!

Be on the lookout for a verification email in your inbox.

You'll start receiving the daily forecast at 6 AM.

×

10-Day Weather Forecast

Almanac

Astronomy

Jul. 21, 2017 Rise Set
Actual Time
Civil Twilight
Nautical Twilight
Astronomical Twilight
Moon
Length of Visible Light
Length of Day
Tomorrow will be .
, % of the Moon is Illuminated

Today's Extremes

State Highs State Lows

Community

WunderPhotos

Category 6

Welcome to Category 6. This is the collective home for Weather Underground's featured writeups by Dr. Jeff Masters (right), Bob Henson (left), Chris Burt, and other regular contributors.

Nearby

Air Quality

  Air Quality AQ Index Pollutant
Not available.

Snow Depth

Station Depth Elevation

Earthquake Activity

City Distance Mag. Time & Date
Minimum magnitude displayed is 2.5.

Coastal Water Temperatures

Place Temperature

Stations

Nearby Weather Stations

Station Location Temp. Windchill Dew Point Humidity Wind Precip. Elev Updated Type
                   

Watches & Warnings

There are currently no watches in effect.